Springfield, New Jersey
Current Conditions -  °F | °C
As of 5:15 PM on Sunday 25 Jan 2015 (Local Time) from KLDJ Reporting Station
Clear Clear  
Wind Chill: 40°   Ceiling: Unl
Heat Index: 43°   Visibility: 10mi
Dew Point: 17°   Wind: 5mph
Humidity: 36%   Direction: 360°N
Pressure: 29.87"   Gusts: NA
Location:  40.71°N, 74.31°W
Report Text: KLDJ 252215Z AUTO 36004KT 10SM CLR 06/M08 A2987 RMK AO2 T00591083
Loading
Personal Weather Stations






























Interactive Weather Map New forecast layout! Learn more

10-Day Weather Forecast

Advertisements
Track Severe Weather on mobile